sensor_id;sensor_type;location;lat;lon;timestamp;pressure;altitude;pressure_sealevel;temperature;humidity
15694;BME280;7947;48.834;9.132;2023-02-11T00:02:26;100236.69;;;-0.16;71.15
15694;BME280;7947;48.834;9.132;2023-02-11T00:05:31;100242.75;;;-0.24;71.54
15694;BME280;7947;48.834;9.132;2023-02-11T00:08:34;100249.13;;;-0.26;72.12
15694;BME280;7947;48.834;9.132;2023-02-11T00:11:36;100236.19;;;-0.20;71.03
15694;BME280;7947;48.834;9.132;2023-02-11T00:14:49;100239.88;;;-0.30;70.98
15694;BME280;7947;48.834;9.132;2023-02-11T00:17:54;100241.56;;;-0.29;72.55
15694;BME280;7947;48.834;9.132;2023-02-11T00:21:10;100238.09;;;-0.30;73.19
15694;BME280;7947;48.834;9.132;2023-02-11T00:24:17;100241.34;;;-0.36;71.87
15694;BME280;7947;48.834;9.132;2023-02-11T00:27:50;100234.31;;;-0.27;71.88
15694;BME280;7947;48.834;9.132;2023-02-11T00:31:37;100224.31;;;-0.41;72.03
15694;BME280;7947;48.834;9.132;2023-02-11T00:35:10;100221.78;;;-0.51;73.36
15694;BME280;7947;48.834;9.132;2023-02-11T00:38:27;100221.94;;;-0.52;73.92
15694;BME280;7947;48.834;9.132;2023-02-11T00:42:01;100222.16;;;-0.63;74.04
15694;BME280;7947;48.834;9.132;2023-02-11T00:45:08;100224.78;;;-0.63;74.52
15694;BME280;7947;48.834;9.132;2023-02-11T00:48:11;100225.03;;;-0.57;73.72
15694;BME280;7947;48.834;9.132;2023-02-11T00:51:41;100229.47;;;-0.57;73.50
15694;BME280;7947;48.834;9.132;2023-02-11T00:54:51;100235.91;;;-0.52;73.21
15694;BME280;7947;48.834;9.132;2023-02-11T00:57:59;100228.94;;;-0.61;74.82
15694;BME280;7947;48.834;9.132;2023-02-11T01:01:05;100222.22;;;-0.55;72.68
15694;BME280;7947;48.834;9.132;2023-02-11T01:04:13;100220.03;;;-0.60;73.81
15694;BME280;7947;48.834;9.132;2023-02-11T01:07:21;100214.56;;;-0.66;72.96
15694;BME280;7947;48.834;9.132;2023-02-11T01:10:31;100199.72;;;-0.67;72.16
15694;BME280;7947;48.834;9.132;2023-02-11T01:13:43;100196.28;;;-0.68;73.40
15694;BME280;7947;48.834;9.132;2023-02-11T01:16:47;100202.84;;;-0.72;74.05
15694;BME280;7947;48.834;9.132;2023-02-11T01:19:57;100196.66;;;-0.80;75.28
15694;BME280;7947;48.834;9.132;2023-02-11T01:23:01;100188.84;;;-0.72;74.92
15694;BME280;7947;48.834;9.132;2023-02-11T01:26:30;100186.81;;;-0.78;74.76
15694;BME280;7947;48.834;9.132;2023-02-11T01:30:08;100172.53;;;-0.76;75.10
15694;BME280;7947;48.834;9.132;2023-02-11T01:33:59;100177.63;;;-0.74;75.33
15694;BME280;7947;48.834;9.132;2023-02-11T01:37:38;100178.38;;;-0.64;75.05
15694;BME280;7947;48.834;9.132;2023-02-11T01:41:16;100175.94;;;-0.58;74.85
15694;BME280;7947;48.834;9.132;2023-02-11T01:49:02;100170.06;;;-0.52;74.25
15694;BME280;7947;48.834;9.132;2023-02-11T01:53:07;100170.88;;;-0.51;72.59
15694;BME280;7947;48.834;9.132;2023-02-11T01:56:56;100184.00;;;-0.59;73.72
15694;BME280;7947;48.834;9.132;2023-02-11T02:00:34;100178.56;;;-0.58;73.66
15694;BME280;7947;48.834;9.132;2023-02-11T02:04:38;100172.28;;;-0.65;73.66
15694;BME280;7947;48.834;9.132;2023-02-11T02:08:42;100165.38;;;-0.66;73.94
15694;BME280;7947;48.834;9.132;2023-02-11T02:11:45;100169.31;;;-0.62;73.59
15694;BME280;7947;48.834;9.132;2023-02-11T02:14:48;100161.28;;;-0.60;74.50
15694;BME280;7947;48.834;9.132;2023-02-11T02:18:06;100167.34;;;-0.60;72.68
15694;BME280;7947;48.834;9.132;2023-02-11T02:25:18;100165.06;;;-0.80;74.43
15694;BME280;7947;48.834;9.132;2023-02-11T02:28:48;100145.25;;;-0.67;73.83
15694;BME280;7947;48.834;9.132;2023-02-11T02:32:13;100154.09;;;-0.76;75.64
15694;BME280;7947;48.834;9.132;2023-02-11T02:35:26;100146.38;;;-0.69;76.00
15694;BME280;7947;48.834;9.132;2023-02-11T02:38:33;100146.09;;;-0.66;75.73
15694;BME280;7947;48.834;9.132;2023-02-11T02:41:40;100143.28;;;-0.65;75.60
15694;BME280;7947;48.834;9.132;2023-02-11T02:44:47;100134.94;;;-0.60;76.49
15694;BME280;7947;48.834;9.132;2023-02-11T02:47:52;100126.88;;;-0.59;75.55
15694;BME280;7947;48.834;9.132;2023-02-11T02:51:01;100125.94;;;-0.50;76.23
15694;BME280;7947;48.834;9.132;2023-02-11T02:54:33;100109.16;;;-0.49;74.02
15694;BME280;7947;48.834;9.132;2023-02-11T02:57:49;100110.75;;;-0.56;76.37
15694;BME280;7947;48.834;9.132;2023-02-11T03:01:02;100124.13;;;-0.49;75.19
15694;BME280;7947;48.834;9.132;2023-02-11T03:04:11;100112.72;;;-0.58;75.29
15694;BME280;7947;48.834;9.132;2023-02-11T03:07:23;100117.00;;;-0.57;75.30
15694;BME280;7947;48.834;9.132;2023-02-11T03:10:30;100108.59;;;-0.60;76.83
15694;BME280;7947;48.834;9.132;2023-02-11T03:13:35;100111.22;;;-0.60;76.60
15694;BME280;7947;48.834;9.132;2023-02-11T03:16:39;100098.25;;;-0.54;78.67
15694;BME280;7947;48.834;9.132;2023-02-11T03:19:45;100109.50;;;-0.44;75.22
15694;BME280;7947;48.834;9.132;2023-02-11T03:22:53;100087.59;;;-0.44;75.29
15694;BME280;7947;48.834;9.132;2023-02-11T03:26:02;100091.84;;;-0.51;75.74
15694;BME280;7947;48.834;9.132;2023-02-11T03:29:13;100094.94;;;-0.56;76.73
15694;BME280;7947;48.834;9.132;2023-02-11T03:32:22;100080.59;;;-0.61;76.59
15694;BME280;7947;48.834;9.132;2023-02-11T03:35:32;100092.47;;;-0.57;76.46
15694;BME280;7947;48.834;9.132;2023-02-11T03:38:42;100097.44;;;-0.54;76.47
15694;BME280;7947;48.834;9.132;2023-02-11T03:41:47;100095.00;;;-0.48;76.10
15694;BME280;7947;48.834;9.132;2023-02-11T03:44:54;100098.00;;;-0.43;75.97
15694;BME280;7947;48.834;9.132;2023-02-11T03:48:00;100091.00;;;-0.52;76.21
15694;BME280;7947;48.834;9.132;2023-02-11T03:51:07;100092.69;;;-0.51;75.68
15694;BME280;7947;48.834;9.132;2023-02-11T03:54:14;100092.19;;;-0.46;76.83
15694;BME280;7947;48.834;9.132;2023-02-11T03:57:19;100090.78;;;-0.41;76.46
15694;BME280;7947;48.834;9.132;2023-02-11T04:00:28;100091.06;;;-0.44;77.04
15694;BME280;7947;48.834;9.132;2023-02-11T04:03:31;100099.69;;;-0.34;77.48
15694;BME280;7947;48.834;9.132;2023-02-11T04:06:35;100104.13;;;-0.34;78.03
15694;BME280;7947;48.834;9.132;2023-02-11T04:09:38;100105.97;;;-0.27;77.85
15694;BME280;7947;48.834;9.132;2023-02-11T04:12:41;100111.13;;;-0.17;76.92
15694;BME280;7947;48.834;9.132;2023-02-11T04:15:44;100122.22;;;-0.06;77.09
15694;BME280;7947;48.834;9.132;2023-02-11T04:18:49;100113.34;;;-0.05;77.42
15694;BME280;7947;48.834;9.132;2023-02-11T04:21:53;100119.50;;;0.12;77.46
15694;BME280;7947;48.834;9.132;2023-02-11T04:24:56;100116.06;;;0.12;77.62
15694;BME280;7947;48.834;9.132;2023-02-11T04:27:59;100115.50;;;0.08;77.01
15694;BME280;7947;48.834;9.132;2023-02-11T04:31:02;100111.06;;;0.09;76.22
15694;BME280;7947;48.834;9.132;2023-02-11T04:34:04;100114.41;;;0.19;77.82
15694;BME280;7947;48.834;9.132;2023-02-11T04:37:09;100111.44;;;0.22;78.37
15694;BME280;7947;48.834;9.132;2023-02-11T04:40:11;100112.63;;;0.19;78.46
15694;BME280;7947;48.834;9.132;2023-02-11T04:43:14;100113.28;;;0.21;78.23
15694;BME280;7947;48.834;9.132;2023-02-11T04:46:17;100105.38;;;0.37;79.05
15694;BME280;7947;48.834;9.132;2023-02-11T04:49:20;100093.69;;;0.40;78.37
15694;BME280;7947;48.834;9.132;2023-02-11T04:52:24;100098.34;;;-0.04;77.71
15694;BME280;7947;48.834;9.132;2023-02-11T04:55:27;100102.16;;;0.02;79.09
15694;BME280;7947;48.834;9.132;2023-02-11T04:58:30;100103.03;;;0.18;79.37
15694;BME280;7947;48.834;9.132;2023-02-11T05:01:33;100101.94;;;0.29;79.74
15694;BME280;7947;48.834;9.132;2023-02-11T05:04:36;100103.59;;;0.38;79.95
15694;BME280;7947;48.834;9.132;2023-02-11T05:07:40;100101.63;;;0.48;80.04
15694;BME280;7947;48.834;9.132;2023-02-11T05:10:44;100091.41;;;0.61;79.99
15694;BME280;7947;48.834;9.132;2023-02-11T05:13:47;100074.47;;;0.71;78.94
15694;BME280;7947;48.834;9.132;2023-02-11T05:16:50;100067.03;;;0.75;78.37
15694;BME280;7947;48.834;9.132;2023-02-11T05:19:53;100052.34;;;0.80;78.61
15694;BME280;7947;48.834;9.132;2023-02-11T05:22:57;100051.50;;;0.88;79.39
15694;BME280;7947;48.834;9.132;2023-02-11T05:26:00;100040.59;;;0.99;79.26
15694;BME280;7947;48.834;9.132;2023-02-11T05:29:03;100040.28;;;1.02;78.34
15694;BME280;7947;48.834;9.132;2023-02-11T05:32:05;100036.63;;;1.11;78.05
15694;BME280;7947;48.834;9.132;2023-02-11T05:35:09;100035.31;;;0.91;77.96
15694;BME280;7947;48.834;9.132;2023-02-11T05:38:13;100030.56;;;1.03;78.35
15694;BME280;7947;48.834;9.132;2023-02-11T05:41:16;100033.31;;;1.09;77.68
15694;BME280;7947;48.834;9.132;2023-02-11T05:44:18;100039.31;;;0.87;79.01
15694;BME280;7947;48.834;9.132;2023-02-11T05:47:21;100039.63;;;0.92;79.67
15694;BME280;7947;48.834;9.132;2023-02-11T05:50:24;100044.59;;;0.71;79.74
15694;BME280;7947;48.834;9.132;2023-02-11T05:53:29;100038.63;;;0.69;78.99
15694;BME280;7947;48.834;9.132;2023-02-11T05:56:31;100040.09;;;0.79;79.10
15694;BME280;7947;48.834;9.132;2023-02-11T05:59:34;100041.78;;;0.88;79.30
15694;BME280;7947;48.834;9.132;2023-02-11T06:02:37;100044.91;;;0.92;79.15
15694;BME280;7947;48.834;9.132;2023-02-11T06:05:41;100053.97;;;0.98;78.91
15694;BME280;7947;48.834;9.132;2023-02-11T06:08:45;100062.06;;;1.04;79.59
15694;BME280;7947;48.834;9.132;2023-02-11T06:11:48;100069.34;;;1.10;80.07
15694;BME280;7947;48.834;9.132;2023-02-11T06:14:50;100069.81;;;1.22;80.07
15694;BME280;7947;48.834;9.132;2023-02-11T06:17:53;100074.44;;;1.28;79.98
15694;BME280;7947;48.834;9.132;2023-02-11T06:20:58;100068.97;;;1.37;80.32
15694;BME280;7947;48.834;9.132;2023-02-11T06:24:03;100074.19;;;1.45;80.20
15694;BME280;7947;48.834;9.132;2023-02-11T06:27:06;100062.97;;;1.43;79.91
15694;BME280;7947;48.834;9.132;2023-02-11T06:30:09;100064.16;;;1.49;79.17
15694;BME280;7947;48.834;9.132;2023-02-11T06:33:12;100062.84;;;1.45;78.63
15694;BME280;7947;48.834;9.132;2023-02-11T06:36:18;100052.56;;;1.50;78.29
15694;BME280;7947;48.834;9.132;2023-02-11T06:39:23;100061.50;;;1.49;77.93
15694;BME280;7947;48.834;9.132;2023-02-11T06:42:26;100064.28;;;1.47;78.45
15694;BME280;7947;48.834;9.132;2023-02-11T06:45:28;100063.13;;;1.50;79.59
15694;BME280;7947;48.834;9.132;2023-02-11T06:48:32;100072.88;;;1.57;79.94
15694;BME280;7947;48.834;9.132;2023-02-11T06:51:35;100065.25;;;1.62;80.09
15694;BME280;7947;48.834;9.132;2023-02-11T06:54:39;100066.25;;;1.61;79.92
15694;BME280;7947;48.834;9.132;2023-02-11T06:57:42;100078.22;;;1.33;79.01
15694;BME280;7947;48.834;9.132;2023-02-11T07:00:45;100084.50;;;1.16;80.82
15694;BME280;7947;48.834;9.132;2023-02-11T07:03:47;100081.19;;;1.30;81.79
15694;BME280;7947;48.834;9.132;2023-02-11T07:06:50;100077.19;;;1.42;82.04
15694;BME280;7947;48.834;9.132;2023-02-11T07:09:54;100075.50;;;1.57;82.06
15694;BME280;7947;48.834;9.132;2023-02-11T07:12:57;100072.53;;;1.60;82.01
15694;BME280;7947;48.834;9.132;2023-02-11T07:16:03;100073.69;;;1.66;81.63
15694;BME280;7947;48.834;9.132;2023-02-11T07:19:06;100073.50;;;1.67;81.56
15694;BME280;7947;48.834;9.132;2023-02-11T07:22:09;100076.78;;;1.77;80.70
15694;BME280;7947;48.834;9.132;2023-02-11T07:25:13;100070.31;;;1.80;80.54
15694;BME280;7947;48.834;9.132;2023-02-11T07:28:15;100064.69;;;1.83;79.97
15694;BME280;7947;48.834;9.132;2023-02-11T07:31:20;100081.88;;;1.79;77.99
15694;BME280;7947;48.834;9.132;2023-02-11T07:34:23;100094.63;;;1.75;81.32
15694;BME280;7947;48.834;9.132;2023-02-11T07:37:25;100084.69;;;1.86;81.68
15694;BME280;7947;48.834;9.132;2023-02-11T07:40:30;100092.25;;;1.97;80.11
15694;BME280;7947;48.834;9.132;2023-02-11T07:43:34;100099.81;;;2.00;79.30
15694;BME280;7947;48.834;9.132;2023-02-11T07:46:37;100094.66;;;2.14;79.37
15694;BME280;7947;48.834;9.132;2023-02-11T07:49:44;100078.56;;;2.24;77.05
15694;BME280;7947;48.834;9.132;2023-02-11T07:52:47;100073.22;;;2.32;75.75
15694;BME280;7947;48.834;9.132;2023-02-11T07:55:51;100075.16;;;2.38;74.32
15694;BME280;7947;48.834;9.132;2023-02-11T07:58:54;100069.09;;;2.29;75.31
15694;BME280;7947;48.834;9.132;2023-02-11T08:01:58;100066.53;;;2.44;74.64
15694;BME280;7947;48.834;9.132;2023-02-11T08:05:01;100057.22;;;2.48;74.63
15694;BME280;7947;48.834;9.132;2023-02-11T08:08:04;100050.88;;;2.57;75.00
15694;BME280;7947;48.834;9.132;2023-02-11T08:11:10;100045.78;;;2.55;73.53
15694;BME280;7947;48.834;9.132;2023-02-11T08:14:13;100049.03;;;2.35;75.66
15694;BME280;7947;48.834;9.132;2023-02-11T08:17:15;100054.38;;;2.27;75.27
15694;BME280;7947;48.834;9.132;2023-02-11T08:20:18;100056.69;;;2.30;76.29
15694;BME280;7947;48.834;9.132;2023-02-11T08:23:21;100064.31;;;2.25;76.49
15694;BME280;7947;48.834;9.132;2023-02-11T08:26:27;100066.22;;;2.39;76.25
15694;BME280;7947;48.834;9.132;2023-02-11T08:29:32;100074.63;;;2.42;76.22
15694;BME280;7947;48.834;9.132;2023-02-11T08:32:34;100062.50;;;2.48;75.53
15694;BME280;7947;48.834;9.132;2023-02-11T08:35:37;100072.66;;;2.67;74.74
15694;BME280;7947;48.834;9.132;2023-02-11T08:38:41;100069.53;;;2.86;73.56
15694;BME280;7947;48.834;9.132;2023-02-11T08:41:46;100066.47;;;3.12;75.13
15694;BME280;7947;48.834;9.132;2023-02-11T08:44:49;100062.69;;;3.29;74.05
15694;BME280;7947;48.834;9.132;2023-02-11T08:47:52;100056.03;;;3.47;73.02
15694;BME280;7947;48.834;9.132;2023-02-11T08:50:55;100057.69;;;3.63;72.88
15694;BME280;7947;48.834;9.132;2023-02-11T08:53:59;100051.38;;;3.79;72.00
15694;BME280;7947;48.834;9.132;2023-02-11T08:57:04;100044.13;;;3.87;71.83
15694;BME280;7947;48.834;9.132;2023-02-11T09:00:07;100048.78;;;4.00;71.18
15694;BME280;7947;48.834;9.132;2023-02-11T09:03:11;100057.00;;;4.05;72.05
15694;BME280;7947;48.834;9.132;2023-02-11T09:06:15;100065.16;;;4.18;70.83
15694;BME280;7947;48.834;9.132;2023-02-11T09:09:19;100061.56;;;4.25;69.91
15694;BME280;7947;48.834;9.132;2023-02-11T09:12:23;100060.06;;;4.37;71.37
15694;BME280;7947;48.834;9.132;2023-02-11T09:15:25;100054.59;;;4.60;70.72
15694;BME280;7947;48.834;9.132;2023-02-11T09:18:28;100059.06;;;4.81;68.22
15694;BME280;7947;48.834;9.132;2023-02-11T09:21:31;100054.50;;;4.75;67.97
15694;BME280;7947;48.834;9.132;2023-02-11T09:24:34;100044.81;;;4.88;67.76
15694;BME280;7947;48.834;9.132;2023-02-11T09:27:39;100045.66;;;4.89;67.58
15694;BME280;7947;48.834;9.132;2023-02-11T09:30:41;100050.22;;;4.74;67.54
15694;BME280;7947;48.834;9.132;2023-02-11T09:33:46;100041.38;;;4.88;66.37
15694;BME280;7947;48.834;9.132;2023-02-11T09:36:50;100035.47;;;4.92;66.43
15694;BME280;7947;48.834;9.132;2023-02-11T09:39:52;100024.78;;;5.13;65.56
15694;BME280;7947;48.834;9.132;2023-02-11T09:43:00;100039.00;;;5.27;65.11
15694;BME280;7947;48.834;9.132;2023-02-11T09:46:05;100042.72;;;5.60;65.23
15694;BME280;7947;48.834;9.132;2023-02-11T09:49:17;100030.84;;;7.42;61.98
15694;BME280;7947;48.834;9.132;2023-02-11T09:52:29;100025.72;;;10.74;52.57
15694;BME280;7947;48.834;9.132;2023-02-11T09:55:38;100027.25;;;12.77;44.93
15694;BME280;7947;48.834;9.132;2023-02-11T09:58:44;100033.19;;;13.95;40.53
15694;BME280;7947;48.834;9.132;2023-02-11T10:01:50;100030.53;;;12.95;41.34
15694;BME280;7947;48.834;9.132;2023-02-11T10:05:12;100041.66;;;12.54;42.28
15694;BME280;7947;48.834;9.132;2023-02-11T10:08:26;100042.81;;;12.58;43.28
15694;BME280;7947;48.834;9.132;2023-02-11T10:11:37;100051.56;;;13.43;41.66
15694;BME280;7947;48.834;9.132;2023-02-11T10:14:59;100043.09;;;15.07;37.95
15694;BME280;7947;48.834;9.132;2023-02-11T10:18:31;100037.34;;;16.86;35.65
15694;BME280;7947;48.834;9.132;2023-02-11T10:21:46;100041.41;;;17.54;33.48
15694;BME280;7947;48.834;9.132;2023-02-11T10:24:55;100042.44;;;17.98;32.50
15694;BME280;7947;48.834;9.132;2023-02-11T10:28:00;100034.09;;;17.39;32.66
15694;BME280;7947;48.834;9.132;2023-02-11T10:31:16;100038.72;;;17.19;33.89
15694;BME280;7947;48.834;9.132;2023-02-11T10:34:20;100039.75;;;17.78;32.40
15694;BME280;7947;48.834;9.132;2023-02-11T10:37:22;100038.34;;;16.65;33.82
15694;BME280;7947;48.834;9.132;2023-02-11T10:40:27;100035.97;;;16.06;35.61
15694;BME280;7947;48.834;9.132;2023-02-11T10:43:31;100039.59;;;15.75;35.88
15694;BME280;7947;48.834;9.132;2023-02-11T10:46:36;100025.44;;;16.15;35.88
15694;BME280;7947;48.834;9.132;2023-02-11T10:49:42;100030.13;;;15.41;36.68
15694;BME280;7947;48.834;9.132;2023-02-11T10:52:44;100027.94;;;15.70;36.88
15694;BME280;7947;48.834;9.132;2023-02-11T10:55:52;100019.94;;;15.16;37.52
15694;BME280;7947;48.834;9.132;2023-02-11T10:58:59;100003.94;;;14.78;38.29
15694;BME280;7947;48.834;9.132;2023-02-11T11:02:16;100006.16;;;14.33;40.54
15694;BME280;7947;48.834;9.132;2023-02-11T11:05:28;100000.34;;;14.99;38.83
15694;BME280;7947;48.834;9.132;2023-02-11T11:08:40;99986.06;;;15.82;37.13
15694;BME280;7947;48.834;9.132;2023-02-11T11:11:51;99981.94;;;16.42;36.01
15694;BME280;7947;48.834;9.132;2023-02-11T11:14:55;99979.31;;;17.02;35.24
15694;BME280;7947;48.834;9.132;2023-02-11T11:18:15;99978.66;;;17.95;33.85
15694;BME280;7947;48.834;9.132;2023-02-11T11:21:25;99980.63;;;18.44;33.05
15694;BME280;7947;48.834;9.132;2023-02-11T11:24:31;99982.69;;;18.57;33.26
15694;BME280;7947;48.834;9.132;2023-02-11T11:27:35;99982.50;;;18.87;32.52
15694;BME280;7947;48.834;9.132;2023-02-11T11:30:40;99988.34;;;18.65;32.63
15694;BME280;7947;48.834;9.132;2023-02-11T11:33:46;99980.78;;;19.30;31.83
15694;BME280;7947;48.834;9.132;2023-02-11T11:36:49;99982.00;;;19.14;31.40
15694;BME280;7947;48.834;9.132;2023-02-11T11:39:56;99977.78;;;19.31;31.42
15694;BME280;7947;48.834;9.132;2023-02-11T11:43:15;99973.66;;;19.39;31.34
15694;BME280;7947;48.834;9.132;2023-02-11T11:46:28;99970.41;;;19.84;30.38
15694;BME280;7947;48.834;9.132;2023-02-11T11:49:36;99968.16;;;19.67;30.15
15694;BME280;7947;48.834;9.132;2023-02-11T11:52:45;99967.75;;;20.26;30.90
15694;BME280;7947;48.834;9.132;2023-02-11T11:55:54;99970.38;;;19.08;31.40
15694;BME280;7947;48.834;9.132;2023-02-11T11:59:04;99984.69;;;16.52;36.15
15694;BME280;7947;48.834;9.132;2023-02-11T12:02:28;99984.78;;;15.48;37.54
15694;BME280;7947;48.834;9.132;2023-02-11T12:05:43;99983.47;;;14.87;39.12
15694;BME280;7947;48.834;9.132;2023-02-11T12:08:55;99982.16;;;14.90;41.06
15694;BME280;7947;48.834;9.132;2023-02-11T12:12:17;99970.31;;;15.69;39.43
15694;BME280;7947;48.834;9.132;2023-02-11T12:15:31;99972.75;;;16.43;37.29
15694;BME280;7947;48.834;9.132;2023-02-11T12:18:47;99973.38;;;16.85;36.54
15694;BME280;7947;48.834;9.132;2023-02-11T12:22:01;99974.72;;;17.38;35.68
15694;BME280;7947;48.834;9.132;2023-02-11T12:25:24;99969.78;;;17.60;34.51
15694;BME280;7947;48.834;9.132;2023-02-11T12:28:33;99973.38;;;16.85;35.71
15694;BME280;7947;48.834;9.132;2023-02-11T12:31:50;99977.03;;;15.67;38.72
15694;BME280;7947;48.834;9.132;2023-02-11T12:35:24;99974.63;;;15.28;39.23
15694;BME280;7947;48.834;9.132;2023-02-11T12:38:48;99974.34;;;15.30;39.04
15694;BME280;7947;48.834;9.132;2023-02-11T12:42:10;99981.88;;;15.23;38.80
15694;BME280;7947;48.834;9.132;2023-02-11T12:46:06;99982.06;;;14.80;40.15
15694;BME280;7947;48.834;9.132;2023-02-11T12:49:31;99982.06;;;14.05;41.32
15694;BME280;7947;48.834;9.132;2023-02-11T12:52:53;99979.09;;;13.85;43.45
15694;BME280;7947;48.834;9.132;2023-02-11T12:56:04;99968.34;;;14.11;43.61
15694;BME280;7947;48.834;9.132;2023-02-11T12:59:14;99969.25;;;14.65;43.31
15694;BME280;7947;48.834;9.132;2023-02-11T13:02:26;99958.16;;;15.35;42.07
15694;BME280;7947;48.834;9.132;2023-02-11T13:05:37;99956.19;;;16.34;39.14
15694;BME280;7947;48.834;9.132;2023-02-11T13:08:45;99956.13;;;16.04;40.07
15694;BME280;7947;48.834;9.132;2023-02-11T13:11:54;99937.63;;;15.81;39.93
15694;BME280;7947;48.834;9.132;2023-02-11T13:15:02;99941.94;;;14.98;42.06
15694;BME280;7947;48.834;9.132;2023-02-11T13:18:16;99944.56;;;14.52;42.89
15694;BME280;7947;48.834;9.132;2023-02-11T13:21:30;99933.25;;;15.28;41.73
15694;BME280;7947;48.834;9.132;2023-02-11T13:24:41;99930.66;;;16.00;40.52
15694;BME280;7947;48.834;9.132;2023-02-11T13:27:53;99930.59;;;15.85;40.98
15694;BME280;7947;48.834;9.132;2023-02-11T13:30:59;99931.66;;;15.32;41.66
15694;BME280;7947;48.834;9.132;2023-02-11T13:34:22;99932.53;;;14.69;43.06
15694;BME280;7947;48.834;9.132;2023-02-11T13:37:29;99926.81;;;14.34;43.79
15694;BME280;7947;48.834;9.132;2023-02-11T13:40:36;99930.97;;;14.20;44.36
15694;BME280;7947;48.834;9.132;2023-02-11T13:43:41;99933.72;;;14.03;44.44
15694;BME280;7947;48.834;9.132;2023-02-11T13:47:06;99936.13;;;14.00;44.61
15694;BME280;7947;48.834;9.132;2023-02-11T13:50:20;99938.75;;;14.16;44.94
15694;BME280;7947;48.834;9.132;2023-02-11T13:53:25;99932.28;;;14.17;44.54
15694;BME280;7947;48.834;9.132;2023-02-11T13:56:30;99934.28;;;14.05;45.26
15694;BME280;7947;48.834;9.132;2023-02-11T13:59:46;99928.69;;;13.85;45.14
15694;BME280;7947;48.834;9.132;2023-02-11T14:07:20;99933.09;;;13.53;45.56
15694;BME280;7947;48.834;9.132;2023-02-11T14:10:51;99933.63;;;13.93;46.03
15694;BME280;7947;48.834;9.132;2023-02-11T14:14:11;99924.38;;;13.63;45.00
15694;BME280;7947;48.834;9.132;2023-02-11T14:17:24;99928.97;;;13.45;45.25
15694;BME280;7947;48.834;9.132;2023-02-11T14:20:37;99916.53;;;13.23;46.23
15694;BME280;7947;48.834;9.132;2023-02-11T14:23:44;99921.59;;;13.19;46.42
15694;BME280;7947;48.834;9.132;2023-02-11T14:26:49;99917.38;;;13.07;46.17
15694;BME280;7947;48.834;9.132;2023-02-11T14:30:12;99915.25;;;12.92;46.44
15694;BME280;7947;48.834;9.132;2023-02-11T14:33:45;99929.66;;;12.53;46.82
15694;BME280;7947;48.834;9.132;2023-02-11T14:37:03;99929.28;;;12.61;48.22
15694;BME280;7947;48.834;9.132;2023-02-11T14:40:17;99929.97;;;12.40;48.17
15694;BME280;7947;48.834;9.132;2023-02-11T14:43:23;99922.59;;;12.19;48.56
15694;BME280;7947;48.834;9.132;2023-02-11T14:46:31;99940.81;;;11.89;49.76
15694;BME280;7947;48.834;9.132;2023-02-11T14:49:38;99943.78;;;11.64;50.51
15694;BME280;7947;48.834;9.132;2023-02-11T14:52:42;99946.06;;;11.21;51.13
15694;BME280;7947;48.834;9.132;2023-02-11T14:55:47;99945.41;;;10.61;53.09
15694;BME280;7947;48.834;9.132;2023-02-11T14:58:52;99960.72;;;10.60;53.30
15694;BME280;7947;48.834;9.132;2023-02-11T15:01:55;99960.84;;;10.65;53.82
15694;BME280;7947;48.834;9.132;2023-02-11T15:05:20;99952.47;;;10.73;53.49
15694;BME280;7947;48.834;9.132;2023-02-11T15:08:27;99965.97;;;10.78;53.40
15694;BME280;7947;48.834;9.132;2023-02-11T15:11:33;99958.63;;;10.62;54.38
15694;BME280;7947;48.834;9.132;2023-02-11T15:14:45;99960.78;;;10.42;54.74
15694;BME280;7947;48.834;9.132;2023-02-11T15:17:49;99966.19;;;10.24;55.17
15694;BME280;7947;48.834;9.132;2023-02-11T15:20:53;99977.09;;;10.11;55.80
15694;BME280;7947;48.834;9.132;2023-02-11T15:23:59;99969.91;;;10.05;55.96
15694;BME280;7947;48.834;9.132;2023-02-11T15:27:03;99967.09;;;10.00;56.25
15694;BME280;7947;48.834;9.132;2023-02-11T15:30:27;99972.72;;;9.80;57.11
15694;BME280;7947;48.834;9.132;2023-02-11T15:33:31;99976.66;;;9.60;58.00
15694;BME280;7947;48.834;9.132;2023-02-11T15:36:36;99972.34;;;9.59;57.51
15694;BME280;7947;48.834;9.132;2023-02-11T15:39:40;99985.81;;;9.52;58.51
15694;BME280;7947;48.834;9.132;2023-02-11T15:42:52;99995.34;;;9.48;58.58
15694;BME280;7947;48.834;9.132;2023-02-11T15:45:59;99986.53;;;9.41;59.12
15694;BME280;7947;48.834;9.132;2023-02-11T15:49:03;99994.31;;;9.25;59.03
15694;BME280;7947;48.834;9.132;2023-02-11T15:52:13;99989.91;;;9.12;59.39
15694;BME280;7947;48.834;9.132;2023-02-11T15:55:18;99998.00;;;9.05;60.24
15694;BME280;7947;48.834;9.132;2023-02-11T15:58:22;99992.47;;;9.00;60.49
15694;BME280;7947;48.834;9.132;2023-02-11T16:01:29;99994.16;;;8.95;60.95
15694;BME280;7947;48.834;9.132;2023-02-11T16:04:35;99998.38;;;8.84;60.92
15694;BME280;7947;48.834;9.132;2023-02-11T16:07:45;99996.38;;;8.73;61.61
15694;BME280;7947;48.834;9.132;2023-02-11T16:10:55;100005.28;;;8.67;62.06
15694;BME280;7947;48.834;9.132;2023-02-11T16:14:00;100008.00;;;8.61;62.53
15694;BME280;7947;48.834;9.132;2023-02-11T16:17:09;100016.03;;;8.61;62.00
15694;BME280;7947;48.834;9.132;2023-02-11T16:20:17;100013.38;;;8.54;62.63
15694;BME280;7947;48.834;9.132;2023-02-11T16:23:23;100019.13;;;8.58;62.90
15694;BME280;7947;48.834;9.132;2023-02-11T16:26:30;100020.94;;;8.64;62.62
15694;BME280;7947;48.834;9.132;2023-02-11T16:29:35;100035.75;;;8.66;63.92
15694;BME280;7947;48.834;9.132;2023-02-11T16:32:38;100035.50;;;8.74;62.76
15694;BME280;7947;48.834;9.132;2023-02-11T16:35:41;100032.63;;;8.69;63.01
15694;BME280;7947;48.834;9.132;2023-02-11T16:38:49;100030.97;;;8.75;62.90
15694;BME280;7947;48.834;9.132;2023-02-11T16:41:51;100029.16;;;8.69;62.82
15694;BME280;7947;48.834;9.132;2023-02-11T16:44:54;100035.34;;;8.63;63.04
15694;BME280;7947;48.834;9.132;2023-02-11T16:47:57;100033.75;;;8.55;63.71
15694;BME280;7947;48.834;9.132;2023-02-11T16:51:00;100047.63;;;8.39;63.47
15694;BME280;7947;48.834;9.132;2023-02-11T16:54:05;100034.47;;;8.38;63.46
15694;BME280;7947;48.834;9.132;2023-02-11T16:57:12;100036.53;;;8.36;64.15
15694;BME280;7947;48.834;9.132;2023-02-11T17:00:16;100041.06;;;8.35;64.14
15694;BME280;7947;48.834;9.132;2023-02-11T17:03:22;100044.19;;;8.26;63.91
15694;BME280;7947;48.834;9.132;2023-02-11T17:06:26;100054.19;;;8.37;64.31